Saturday, November 18, 2017, 11:44 PM EST
Back to Local

KORH, Worcester Regional Airport

Location: Worcester, MA, United States Lat: 42.267
Local Time: 11:44 PM EST ( 4:44 GMT) Lon: -71.867
Time Zone: US/Eastern Elev: 1010 ft

Show me the last for .
Show Decoded

2017-11-18 23:07 METAR KORH 190407Z AUTO 21014KT 10SM -RA SCT010 BKN042 OVC050 08/06 A2948 =
2017-11-18 22:54 METAR KORH 190354Z AUTO 21014KT 10SM -RA BKN010 BKN015 OVC041 07/06 A2948 RMK
                 AO2 RAE04B41 CIG 004V012 SLP990 P0000 T00720056 =
2017-11-18 22:20 METAR KORH 190320Z AUTO 21008KT 3SM BR OVC005 06/05 A2950 RMK AO2 RAE04 P0000
                 T00560050 =
2017-11-18 21:54 METAR KORH 190254Z AUTO 22005KT 3SM -RA BR OVC003 05/04 A2951 RMK AO2 RAB35
                 SLP003 P0000 60006 T00500039 57036 =
2017-11-18 21:07 METAR KORH 190207Z AUTO 19003KT 10SM BKN004 OVC008 04/03 A2954 RMK AO2 T00440028
                 =
2017-11-18 20:54 METAR KORH 190154Z AUTO 00000KT 10SM OVC008 04/03 A2955 RMK AO2 RAE54 SLP014
                 P0001 T00440028 =
2017-11-18 20:37 METAR KORH 190137Z 00000KT 10SM -RA BKN008 BKN013 OVC033 04/03 A2956 RMK AO2
                 P0001 T00390028 =
2017-11-18 19:54 METAR KORH 190054Z 19005KT 10SM -RA FEW014 BKN019 OVC029 04/02 A2959 RMK AO2
                 RAB2357 SLP030 P0005 T00390017 =
2017-11-18 18:54 METAR KORH 182354Z 00000KT 10SM SCT019 BKN025 OVC049 04/00 A2962 RMK AO2
                 RAB42E51 SLP042 P0000 60001 T00440000 10044 20033 58014 =
2017-11-18 18:34 METAR KORH 182334Z 00000KT 10SM FEW018 SCT029 OVC049 04/01 A2963 RMK AO2
                 T00390006 =
2017-11-18 17:54 METAR KORH 182254Z 06003KT 10SM BKN018 OVC024 04/00 A2965 RMK AO2 RAE08 SLP051
                 P0000 T00390000 =
2017-11-18 16:54 METAR KORH 182154Z 00000KT 10SM -RA BKN021 BKN060 OVC080 03/00 A2966 RMK AO2
                 SLP056 P0001 T00330000 =
2017-11-18 16:52 METAR KORH 182152Z 05003KT 10SM -RA BKN021 BKN060 OVC080 04/00 A2966 RMK AO2
                 P0001 =
2017-11-18 15:54 METAR KORH 182054Z 18006KT 10SM -RA FEW060 BKN070 OVC090 04/M01 A2969 RMK AO2
                 RAB22 SLP063 P0000 60000 T00391011 56030 =
2017-11-18 14:54 METAR KORH 181954Z 17007KT 10SM BKN110 04/M03 A2970 RMK AO2 SLP069 T00391033 =
2017-11-18 13:54 METAR KORH 181854Z 21011KT 10SM SCT120 04/M03 A2975 RMK AO2 SLP085 T00441033 =
2017-11-18 12:54 METAR KORH 181754Z 21011KT 10SM SCT100 04/M06 A2978 RMK AO2 SLP094 T00441061
                 10044 21033 58033 =
2017-11-18 11:54 METAR KORH 181654Z 21008KT 10SM CLR 04/M09 A2980 RMK AO2 SLP104 T00391094 =
2017-11-18 10:54 METAR KORH 181554Z 22013KT 10SM CLR 03/M09 A2986 RMK AO2 SLP121 T00281094 =
2017-11-18 09:54 METAR KORH 181454Z 21006KT 10SM CLR 01/M12 A2988 RMK AO2 SLP130 T00111117 58018
                 =
2017-11-18 08:54 METAR KORH 181354Z 24005KT 10SM CLR 01/M12 A2990 RMK AO2 SLP137 T00061117 =
2017-11-18 07:54 METAR KORH 181254Z 23005KT 10SM CLR M01/M10 A2992 RMK AO2 SLP144 T10111100 =
2017-11-18 06:54 METAR KORH 181154Z 28007KT 10SM CLR M03/M11 A2993 RMK AO2 SLP149 T10331111 11011
                 21039 55001 =
2017-11-18 05:54 METAR KORH 181054Z AUTO 26010KT 10SM CLR M03/M11 A2993 RMK AO2 SLP148 T10331106
                 =
2017-11-18 04:54 METAR KORH 180954Z AUTO 26013KT 10SM CLR M03/M09 A2994 RMK AO2 SLP150 T10331094
                 =
2017-11-18 03:54 METAR KORH 180854Z AUTO 25012KT 10SM CLR M03/M09 A2994 RMK AO2 SLP150 T10331094
                 55005 =
2017-11-18 02:54 METAR KORH 180754Z AUTO 25005KT 10SM CLR M03/M10 A2993 RMK AO2 SLP146 T10331100
                 =
2017-11-18 01:54 METAR KORH 180654Z AUTO 26007KT 10SM BKN110 M02/M11 A2995 RMK AO2 SLP154
                 T10221111 =
2017-11-18 00:54 METAR KORH 180554Z AUTO 28008KT 10SM OVC110 M02/M11 A2995 RMK AO2 SLP154
                 T10171106 10000 21017 56002 =
2017-11-17 23:54 METAR KORH 180454Z AUTO 31007KT 10SM CLR M02/M11 A2995 RMK AO2 SLP154 T10171106
                 400441017 =

Support USWX by starting your Amazon purchase here.